createdAt,value
2023-04-22T00:00:18.353Z,0.00
2023-04-22T00:01:18.363Z,0.00
2023-04-22T00:02:18.386Z,0.00
2023-04-22T00:03:18.520Z,0.00
2023-04-22T00:04:18.585Z,0.00
2023-04-22T00:05:20.568Z,0.00
2023-04-22T00:06:18.366Z,0.00
2023-04-22T00:07:18.355Z,0.00
2023-04-22T00:08:18.363Z,0.00
2023-04-22T00:09:18.400Z,0.00
2023-04-22T00:10:18.339Z,0.00
2023-04-22T00:11:18.342Z,0.00
2023-04-22T00:12:18.360Z,0.00
2023-04-22T00:13:18.601Z,0.00
2023-04-22T00:14:18.350Z,0.00
2023-04-22T00:15:18.352Z,0.00
2023-04-22T00:16:18.435Z,0.00
2023-04-22T00:17:18.339Z,0.00
2023-04-22T00:18:18.331Z,0.00
2023-04-22T00:19:18.324Z,0.00
2023-04-22T00:20:18.313Z,0.00
2023-04-22T00:21:18.309Z,0.00
2023-04-22T00:22:18.323Z,0.00
2023-04-22T00:23:18.354Z,0.00
2023-04-22T00:24:18.297Z,0.00
2023-04-22T00:25:18.337Z,0.00
2023-04-22T00:26:18.381Z,0.00
2023-04-22T00:27:18.362Z,0.00
2023-04-22T00:28:18.299Z,0.00
2023-04-22T00:29:18.286Z,0.00
2023-04-22T00:30:18.281Z,0.00
2023-04-22T00:31:18.311Z,0.00
2023-04-22T00:32:18.281Z,0.00
2023-04-22T00:33:18.267Z,0.00
2023-04-22T00:34:18.269Z,0.00
2023-04-22T00:35:18.283Z,0.00
2023-04-22T00:36:18.274Z,0.00
2023-04-22T00:37:18.272Z,0.00
2023-04-22T00:38:18.261Z,0.00
2023-04-22T00:39:18.258Z,0.00
2023-04-22T00:40:18.292Z,0.00
2023-04-22T00:41:18.254Z,0.00
2023-04-22T00:42:18.242Z,0.00
2023-04-22T00:43:18.245Z,0.00
2023-04-22T00:44:18.243Z,0.00
2023-04-22T00:45:18.238Z,0.00
2023-04-22T00:46:18.297Z,0.00
2023-04-22T00:47:18.235Z,0.00
2023-04-22T00:48:18.245Z,0.00
2023-04-22T00:49:18.231Z,0.00
2023-04-22T00:50:18.214Z,0.00
2023-04-22T00:51:18.223Z,0.00
2023-04-22T00:52:18.212Z,0.00
2023-04-22T00:53:18.210Z,0.00
2023-04-22T00:54:18.213Z,0.00
2023-04-22T00:55:18.286Z,0.00
2023-04-22T00:56:18.206Z,0.00
2023-04-22T00:57:18.206Z,0.00
2023-04-22T00:58:18.203Z,0.00
2023-04-22T00:59:18.210Z,0.00
2023-04-22T01:00:18.191Z,0.00
2023-04-22T01:01:18.202Z,0.00
2023-04-22T01:02:18.254Z,0.00
2023-04-22T01:03:18.320Z,0.00
2023-04-22T01:04:18.262Z,0.00
2023-04-22T01:05:18.178Z,0.00
2023-04-22T01:06:18.176Z,0.00
2023-04-22T01:07:18.192Z,0.00
2023-04-22T01:08:18.180Z,0.00
2023-04-22T01:09:18.198Z,0.00
2023-04-22T01:10:18.167Z,0.00
2023-04-22T01:11:18.170Z,0.00
2023-04-22T01:12:18.169Z,0.00
2023-04-22T01:13:18.366Z,0.00
2023-04-22T01:14:18.149Z,0.00
2023-04-22T01:15:18.194Z,0.00
2023-04-22T01:16:18.222Z,0.00
2023-04-22T01:17:18.153Z,0.00
2023-04-22T01:18:18.160Z,0.00
2023-04-22T01:19:18.148Z,0.00
2023-04-22T01:20:18.145Z,0.00
2023-04-22T01:21:18.166Z,0.00
2023-04-22T01:22:18.149Z,0.00
2023-04-22T01:23:18.147Z,0.00
2023-04-22T01:24:18.134Z,0.00
2023-04-22T01:25:18.128Z,0.00
2023-04-22T01:26:18.130Z,0.00
2023-04-22T01:27:18.132Z,0.00
2023-04-22T01:28:18.127Z,0.00
2023-04-22T01:29:18.121Z,0.00
2023-04-22T01:30:18.127Z,0.00
2023-04-22T01:31:18.106Z,0.00
2023-04-22T01:32:18.234Z,0.00
2023-04-22T01:33:18.171Z,0.00
2023-04-22T01:34:18.114Z,0.00
2023-04-22T01:35:18.094Z,0.00
2023-04-22T01:36:18.093Z,0.00
2023-04-22T01:37:18.092Z,0.00
2023-04-22T01:38:18.086Z,0.00
2023-04-22T01:39:18.114Z,0.00
2023-04-22T01:40:18.087Z,0.00
2023-04-22T01:41:18.105Z,0.00
2023-04-22T01:42:18.106Z,0.00
2023-04-22T01:43:18.086Z,0.00
2023-04-22T01:44:18.068Z,0.00
2023-04-22T01:45:18.081Z,0.00
2023-04-22T01:46:18.135Z,0.00
2023-04-22T01:47:18.161Z,0.00
2023-04-22T01:48:18.088Z,0.00
2023-04-22T01:49:18.080Z,0.00
2023-04-22T01:50:18.052Z,0.00
2023-04-22T01:51:18.047Z,0.00
2023-04-22T01:52:18.100Z,0.00
2023-04-22T01:53:18.044Z,0.00
2023-04-22T01:54:18.052Z,0.00
2023-04-22T01:55:18.076Z,0.00
2023-04-22T01:56:18.043Z,0.00
2023-04-22T01:57:18.033Z,0.00
2023-04-22T01:58:18.027Z,0.00
2023-04-22T01:59:18.033Z,0.00
2023-04-22T02:00:18.032Z,0.00
2023-04-22T02:01:18.039Z,0.00
2023-04-22T02:02:18.103Z,0.00
2023-04-22T02:03:18.178Z,0.00
2023-04-22T02:04:18.020Z,0.00
2023-04-22T02:05:18.010Z,0.00
2023-04-22T02:06:18.021Z,0.00
2023-04-22T02:07:18.006Z,0.00
2023-04-22T02:08:18.050Z,0.00
2023-04-22T02:09:17.990Z,0.00
2023-04-22T02:10:17.987Z,0.00
2023-04-22T02:11:18.026Z,0.00
2023-04-22T02:12:17.998Z,0.00
2023-04-22T02:13:17.987Z,0.00
2023-04-22T02:14:17.980Z,0.00
2023-04-22T02:15:17.999Z,0.00
2023-04-22T02:16:18.018Z,0.00
2023-04-22T02:17:18.059Z,0.00
2023-04-22T02:18:17.960Z,0.00
2023-04-22T02:19:17.987Z,0.00
2023-04-22T02:20:17.977Z,0.00
2023-04-22T02:21:17.956Z,0.00
2023-04-22T02:22:17.971Z,0.00
2023-04-22T02:23:17.953Z,0.00
2023-04-22T02:24:17.959Z,0.00
2023-04-22T02:25:17.943Z,0.00
2023-04-22T02:26:17.939Z,0.00
2023-04-22T02:27:17.964Z,0.00
2023-04-22T02:28:17.945Z,0.00
2023-04-22T02:29:17.937Z,0.00
2023-04-22T02:30:17.947Z,0.00
2023-04-22T02:31:17.982Z,0.00
2023-04-22T02:32:17.934Z,0.00
2023-04-22T02:33:17.921Z,0.00
2023-04-22T02:34:17.955Z,0.00
2023-04-22T02:35:17.923Z,0.00
2023-04-22T02:36:17.901Z,0.00
2023-04-22T02:37:17.906Z,0.00
2023-04-22T02:38:17.903Z,0.00
2023-04-22T02:39:17.950Z,0.00
2023-04-22T02:40:17.927Z,0.00
2023-04-22T02:41:17.921Z,0.00
2023-04-22T02:42:17.908Z,0.00
2023-04-22T02:43:17.921Z,0.00
2023-04-22T02:44:17.908Z,0.00
2023-04-22T02:45:17.894Z,0.00
2023-04-22T02:46:17.908Z,0.00
2023-04-22T02:47:17.871Z,0.00
2023-04-22T02:48:17.873Z,0.00
2023-04-22T02:49:17.879Z,0.00
2023-04-22T02:50:17.888Z,0.00
2023-04-22T02:51:17.855Z,0.00
2023-04-22T02:52:17.866Z,0.00
2023-04-22T02:53:17.880Z,0.00
2023-04-22T02:54:17.875Z,0.00
2023-04-22T02:55:17.873Z,0.00
2023-04-22T02:56:17.845Z,0.00
2023-04-22T02:57:17.834Z,0.00
2023-04-22T02:58:17.834Z,0.00
2023-04-22T02:59:17.848Z,0.00
2023-04-22T03:00:17.856Z,0.00
2023-04-22T03:01:17.862Z,0.00
2023-04-22T03:02:17.940Z,0.00
2023-04-22T03:03:18.013Z,0.00
2023-04-22T03:04:18.022Z,0.00
2023-04-22T03:05:17.824Z,0.00
2023-04-22T03:06:17.801Z,0.00
2023-04-22T03:07:17.800Z,0.00
2023-04-22T03:08:17.823Z,0.00
2023-04-22T03:09:17.821Z,0.00
2023-04-22T03:10:17.795Z,0.00
2023-04-22T03:11:17.833Z,0.00
2023-04-22T03:12:17.782Z,0.00
2023-04-22T03:13:17.814Z,0.00
2023-04-22T03:14:17.796Z,0.00
2023-04-22T03:15:21.084Z,0.00
2023-04-22T03:16:17.816Z,0.00
2023-04-22T03:17:17.769Z,0.00
2023-04-22T03:18:17.786Z,0.00
2023-04-22T03:19:17.765Z,0.00
2023-04-22T03:20:17.759Z,0.00
2023-04-22T03:21:17.779Z,4.00
2023-04-22T03:22:17.748Z,4.00
2023-04-22T03:23:17.758Z,0.00
2023-04-22T03:24:17.761Z,0.00
2023-04-22T03:25:17.760Z,4.00
2023-04-22T03:26:17.749Z,0.00
2023-04-22T03:27:17.734Z,4.00
2023-04-22T03:28:17.736Z,4.00
2023-04-22T03:29:17.731Z,4.00
2023-04-22T03:30:17.730Z,4.00
2023-04-22T03:31:17.738Z,4.00
2023-04-22T03:32:17.796Z,8.00
2023-04-22T03:33:17.743Z,8.00
2023-04-22T03:34:17.716Z,12.00
2023-04-22T03:35:17.780Z,12.00
2023-04-22T03:36:17.700Z,12.00
2023-04-22T03:37:17.721Z,20.00
2023-04-22T03:38:17.726Z,20.00
2023-04-22T03:39:17.714Z,24.00
2023-04-22T03:40:17.741Z,24.00
2023-04-22T03:41:17.688Z,28.00
2023-04-22T03:42:17.699Z,36.00
2023-04-22T03:43:17.692Z,40.00
2023-04-22T03:44:17.687Z,44.00
2023-04-22T03:45:17.675Z,52.00
2023-04-22T03:46:17.761Z,56.00
2023-04-22T03:47:17.667Z,60.00
2023-04-22T03:48:17.667Z,72.00
2023-04-22T03:49:17.669Z,76.00
2023-04-22T03:50:17.653Z,84.00
2023-04-22T03:51:17.653Z,96.00
2023-04-22T03:52:17.651Z,104.00
2023-04-22T03:53:17.665Z,116.00
2023-04-22T03:54:17.638Z,128.00
2023-04-22T03:55:17.660Z,140.00
2023-04-22T03:56:17.658Z,152.00
2023-04-22T03:57:17.622Z,164.00
2023-04-22T03:58:17.619Z,180.00
2023-04-22T03:59:17.631Z,196.00
2023-04-22T04:00:17.644Z,212.00
2023-04-22T04:01:17.627Z,228.00
2023-04-22T04:02:17.670Z,248.00
2023-04-22T04:03:17.803Z,264.00
2023-04-22T04:04:17.793Z,288.00
2023-04-22T04:05:17.809Z,304.00
2023-04-22T04:06:17.603Z,324.00
2023-04-22T04:07:17.595Z,348.00
2023-04-22T04:08:17.596Z,372.00
2023-04-22T04:09:17.609Z,396.00
2023-04-22T04:10:17.804Z,420.00
2023-04-22T04:11:17.585Z,444.00
2023-04-22T04:12:17.616Z,472.00
2023-04-22T04:13:17.623Z,500.00
2023-04-22T04:14:17.608Z,528.00
2023-04-22T04:15:17.588Z,556.00
2023-04-22T04:16:17.632Z,588.00
2023-04-22T04:17:17.608Z,616.00
2023-04-22T04:18:17.598Z,648.00
2023-04-22T04:19:17.651Z,680.00
2023-04-22T04:20:17.561Z,712.00
2023-04-22T04:21:17.558Z,744.00
2023-04-22T04:22:17.622Z,780.00
2023-04-22T04:23:17.595Z,812.00
2023-04-22T04:24:17.529Z,844.00
2023-04-22T04:25:17.640Z,880.00
2023-04-22T04:26:17.525Z,916.00
2023-04-22T04:27:17.510Z,948.00
2023-04-22T04:28:17.509Z,984.00
2023-04-22T04:29:17.512Z,1020.00
2023-04-22T04:30:17.509Z,1060.00
2023-04-22T04:31:17.546Z,1096.00
2023-04-22T04:32:17.494Z,1132.00
2023-04-22T04:33:17.493Z,1168.00
2023-04-22T04:34:17.510Z,1208.00
2023-04-22T04:35:17.493Z,1248.00
2023-04-22T04:36:17.506Z,1288.00
2023-04-22T04:37:17.479Z,1324.00
2023-04-22T04:38:17.482Z,1368.00
2023-04-22T04:39:17.481Z,1404.00
2023-04-22T04:40:17.456Z,1444.00
2023-04-22T04:41:17.477Z,1484.00
2023-04-22T04:42:17.465Z,1524.00
2023-04-22T04:43:17.458Z,1568.00
2023-04-22T04:44:17.464Z,1608.00
2023-04-22T04:45:17.451Z,1648.00
2023-04-22T04:46:17.492Z,1692.00
2023-04-22T04:47:17.437Z,1736.00
2023-04-22T04:48:17.440Z,1772.00
2023-04-22T04:49:17.431Z,1816.00
2023-04-22T04:50:17.428Z,1864.00
2023-04-22T04:51:20.079Z,1908.00
2023-04-22T04:52:17.427Z,1948.00
2023-04-22T04:53:17.426Z,1992.00
2023-04-22T04:54:17.422Z,2040.00
2023-04-22T04:55:17.443Z,2084.00
2023-04-22T04:56:17.398Z,2128.00
2023-04-22T04:57:17.397Z,2168.00
2023-04-22T04:58:17.404Z,2216.00
2023-04-22T04:59:17.402Z,2256.00
2023-04-22T05:00:17.407Z,2296.00
2023-04-22T05:01:17.445Z,2336.00
2023-04-22T05:02:17.618Z,2376.00
2023-04-22T05:03:17.560Z,2420.00
2023-04-22T05:04:17.611Z,2464.00
2023-04-22T05:05:17.384Z,2504.00
2023-04-22T05:06:17.379Z,2552.00
2023-04-22T05:07:17.380Z,2588.00
2023-04-22T05:08:17.363Z,2624.00
2023-04-22T05:09:17.373Z,2668.00
2023-04-22T05:10:17.380Z,2704.00
2023-04-22T05:11:17.362Z,2752.00
2023-04-22T05:12:17.377Z,2796.00
2023-04-22T05:13:17.349Z,2840.00
2023-04-22T05:14:17.344Z,2876.00
2023-04-22T05:15:17.331Z,2920.00
2023-04-22T05:16:17.423Z,2964.00
2023-04-22T05:17:17.349Z,3004.00
2023-04-22T05:18:17.349Z,3036.00
2023-04-22T05:19:17.343Z,3072.00
2023-04-22T05:20:17.343Z,3116.00
2023-04-22T05:21:17.322Z,3164.00
2023-04-22T05:22:17.312Z,3208.00
2023-04-22T05:23:17.313Z,3256.00
2023-04-22T05:24:17.317Z,3304.00
2023-04-22T05:25:17.332Z,3352.00
2023-04-22T05:26:17.316Z,3400.00
2023-04-22T05:27:17.295Z,3460.00
2023-04-22T05:28:17.331Z,3508.00
2023-04-22T05:29:17.307Z,3556.00
2023-04-22T05:30:17.320Z,3604.00
2023-04-22T05:31:17.316Z,3632.00
2023-04-22T05:32:17.383Z,3692.00
2023-04-22T05:33:17.323Z,3744.00
2023-04-22T05:34:17.280Z,3796.00
2023-04-22T05:35:17.348Z,3852.00
2023-04-22T05:36:17.263Z,3900.00
2023-04-22T05:37:17.258Z,3960.00
2023-04-22T05:38:17.283Z,4012.00
2023-04-22T05:39:17.257Z,4068.00
2023-04-22T05:40:17.280Z,4116.00
2023-04-22T05:41:17.259Z,4168.00
2023-04-22T05:42:17.254Z,4216.00
2023-04-22T05:43:17.237Z,4260.00
2023-04-22T05:44:17.235Z,4300.00
2023-04-22T05:45:17.244Z,4348.00
2023-04-22T05:46:17.304Z,4400.00
2023-04-22T05:47:17.253Z,4460.00
2023-04-22T05:48:17.225Z,4508.00
2023-04-22T05:49:17.221Z,4564.00
2023-04-22T05:50:17.227Z,4612.00
2023-04-22T05:51:17.224Z,4668.00
2023-04-22T05:52:17.237Z,4724.00
2023-04-22T05:53:17.222Z,4776.00
2023-04-22T05:54:17.219Z,4824.00
2023-04-22T05:55:17.216Z,4876.00
2023-04-22T05:56:17.202Z,4928.00
2023-04-22T05:57:17.214Z,4988.00
2023-04-22T05:58:17.204Z,5052.00
2023-04-22T05:59:18.847Z,5112.00
2023-04-22T06:00:17.187Z,5180.00
2023-04-22T06:01:17.197Z,5264.00
2023-04-22T06:02:17.267Z,5336.00
2023-04-22T06:03:17.397Z,5404.00
2023-04-22T06:04:17.423Z,5448.00
2023-04-22T06:05:17.263Z,5500.00
2023-04-22T06:06:17.187Z,5556.00
2023-04-22T06:07:17.171Z,5620.00
2023-04-22T06:08:17.199Z,5688.00
2023-04-22T06:09:17.194Z,5800.00
2023-04-22T06:10:17.181Z,14192.00
2023-04-22T06:11:17.148Z,37600.00
2023-04-22T06:12:17.146Z,56896.00
2023-04-22T06:13:17.140Z,65184.00
2023-04-22T06:14:17.148Z,70368.00
2023-04-22T06:15:17.184Z,71456.00
2023-04-22T06:16:17.144Z,72000.00
2023-04-22T06:17:17.195Z,71680.00
2023-04-22T06:18:17.162Z,72064.00
2023-04-22T06:19:17.160Z,71648.00
2023-04-22T06:20:17.170Z,69216.00
2023-04-22T06:21:17.136Z,67296.00
2023-04-22T06:22:17.144Z,67488.00
2023-04-22T06:23:17.141Z,68768.00
2023-04-22T06:24:17.148Z,70848.00
2023-04-22T06:25:17.137Z,72384.00
2023-04-22T06:26:17.149Z,72320.00
2023-04-22T06:27:17.164Z,70624.00
2023-04-22T06:28:17.172Z,66720.00
2023-04-22T06:29:17.175Z,67808.00
2023-04-22T06:30:17.186Z,71488.00
2023-04-22T06:31:18.787Z,72320.00
2023-04-22T06:32:17.181Z,65120.00
2023-04-22T06:33:17.194Z,51936.00
2023-04-22T06:34:17.225Z,43520.00
2023-04-22T06:35:17.217Z,48608.00
2023-04-22T06:36:17.218Z,62688.00
2023-04-22T06:37:17.224Z,70944.00
2023-04-22T06:38:17.236Z,72928.00
2023-04-22T06:39:17.237Z,75008.00
2023-04-22T06:40:17.270Z,75840.00
2023-04-22T06:41:17.259Z,71936.00
2023-04-22T06:42:17.272Z,62528.00
2023-04-22T06:43:17.285Z,59968.00
2023-04-22T06:44:17.290Z,65952.00
2023-04-22T06:45:17.315Z,69792.00
2023-04-22T06:46:17.316Z,70176.00
2023-04-22T06:47:17.362Z,77120.00
2023-04-22T06:48:17.337Z,81344.00
2023-04-22T06:49:17.343Z,78400.00
2023-04-22T06:50:17.385Z,75488.00
2023-04-22T06:51:17.378Z,76416.00
2023-04-22T06:52:17.402Z,73472.00
2023-04-22T06:53:17.385Z,75552.00
2023-04-22T06:54:17.423Z,74816.00
2023-04-22T06:55:17.405Z,70400.00
2023-04-22T06:56:17.444Z,72032.00
2023-04-22T06:57:17.432Z,73472.00
2023-04-22T06:58:17.462Z,75776.00
2023-04-22T06:59:17.474Z,73952.00
2023-04-22T07:00:17.498Z,74368.00
2023-04-22T07:01:17.530Z,77888.00
2023-04-22T07:02:17.596Z,73536.00
2023-04-22T07:03:17.669Z,72128.00
2023-04-22T07:04:17.565Z,72032.00
2023-04-22T07:05:17.591Z,62208.00
2023-04-22T07:06:17.564Z,55936.00
2023-04-22T07:07:17.567Z,45376.00
2023-04-22T07:08:17.696Z,57376.00
2023-04-22T07:09:17.614Z,60224.00
2023-04-22T07:10:17.597Z,64256.00
2023-04-22T07:11:17.621Z,71328.00
2023-04-22T07:12:17.636Z,77120.00
2023-04-22T07:13:17.723Z,78464.00
2023-04-22T07:14:17.675Z,78880.00
2023-04-22T07:15:17.686Z,79168.00
2023-04-22T07:16:17.716Z,79776.00
2023-04-22T07:17:17.745Z,77664.00
2023-04-22T07:18:17.715Z,76288.00
2023-04-22T07:19:17.712Z,78528.00
2023-04-22T07:20:17.730Z,82400.00
2023-04-22T07:21:17.759Z,83328.00
2023-04-22T07:22:17.797Z,78848.00
2023-04-22T07:23:17.756Z,75712.00
2023-04-22T07:24:17.793Z,76256.00
2023-04-22T07:25:17.935Z,79808.00
2023-04-22T07:26:17.856Z,77600.00
2023-04-22T07:27:17.849Z,78752.00
2023-04-22T07:28:17.890Z,75456.00
2023-04-22T07:29:17.846Z,71520.00
2023-04-22T07:30:17.891Z,70560.00
2023-04-22T07:31:17.907Z,74112.00
2023-04-22T07:32:17.903Z,77600.00
2023-04-22T07:33:17.925Z,77312.00
2023-04-22T07:34:17.921Z,76672.00
2023-04-22T07:35:17.923Z,74816.00
2023-04-22T07:36:17.966Z,73856.00
2023-04-22T07:37:17.972Z,73632.00
2023-04-22T07:38:17.975Z,69440.00
2023-04-22T07:39:18.015Z,64928.00
2023-04-22T07:40:18.013Z,72352.00
2023-04-22T07:41:18.021Z,78016.00
2023-04-22T07:42:18.031Z,74432.00
2023-04-22T07:43:18.064Z,74112.00
2023-04-22T07:44:18.072Z,76544.00
2023-04-22T07:45:18.074Z,80640.00
2023-04-22T07:46:18.157Z,81376.00
2023-04-22T07:47:18.118Z,81216.00
2023-04-22T07:48:18.119Z,70336.00
2023-04-22T07:49:18.144Z,68064.00
2023-04-22T07:50:18.221Z,68064.00
2023-04-22T07:51:18.172Z,70624.00
2023-04-22T07:52:18.175Z,73696.00
2023-04-22T07:53:18.274Z,73216.00
2023-04-22T07:54:18.207Z,77440.00
2023-04-22T07:55:18.221Z,77472.00
2023-04-22T07:56:18.297Z,77216.00
2023-04-22T07:57:18.263Z,77024.00
2023-04-22T07:58:18.275Z,77920.00
2023-04-22T07:59:18.275Z,79168.00
2023-04-22T08:00:18.301Z,77376.00
2023-04-22T08:01:20.114Z,75072.00
2023-04-22T08:02:18.422Z,76160.00
2023-04-22T08:03:18.499Z,74304.00
2023-04-22T08:04:18.751Z,71040.00
2023-04-22T08:05:18.458Z,45088.00
2023-04-22T08:06:18.400Z,23424.00
2023-04-22T08:08:18.442Z,19744.00
2023-04-22T08:09:18.438Z,18880.00
2023-04-22T08:10:18.492Z,18176.00
2023-04-22T08:11:18.468Z,17600.00
2023-04-22T08:12:18.486Z,17024.00
2023-04-22T08:13:18.525Z,16512.00
2023-04-22T08:14:18.500Z,15796.00
2023-04-22T08:15:18.510Z,15164.00
2023-04-22T08:16:18.571Z,14648.00
2023-04-22T08:17:18.522Z,14156.00
2023-04-22T08:18:18.561Z,13616.00
2023-04-22T08:19:18.585Z,13152.00
2023-04-22T08:20:18.575Z,12744.00
2023-04-22T08:21:18.593Z,12356.00
2023-04-22T08:22:18.616Z,11936.00
2023-04-22T08:23:18.606Z,11640.00
2023-04-22T08:24:18.600Z,11216.00
2023-04-22T08:25:18.616Z,10952.00
2023-04-22T08:26:18.624Z,10720.00
2023-04-22T08:27:18.627Z,10512.00
2023-04-22T08:28:18.662Z,10252.00
2023-04-22T08:29:18.679Z,10016.00
2023-04-22T08:30:18.665Z,9864.00
2023-04-22T08:31:18.705Z,9652.00
2023-04-22T08:32:18.722Z,9468.00
2023-04-22T08:33:18.697Z,9272.00
2023-04-22T08:34:18.693Z,9072.00
2023-04-22T08:35:18.701Z,8876.00
2023-04-22T08:36:18.699Z,8748.00
2023-04-22T08:37:18.753Z,8600.00
2023-04-22T08:38:18.763Z,8456.00
2023-04-22T08:39:18.743Z,8328.00
2023-04-22T08:40:18.747Z,8200.00
2023-04-22T08:41:18.743Z,8116.00
2023-04-22T08:42:18.734Z,8016.00
2023-04-22T08:43:18.779Z,7916.00
2023-04-22T08:44:18.756Z,7836.00
2023-04-22T08:45:18.761Z,7732.00
2023-04-22T08:46:18.779Z,7640.00
2023-04-22T08:47:18.775Z,7548.00
2023-04-22T08:48:18.780Z,7472.00
2023-04-22T08:49:18.805Z,7388.00
2023-04-22T08:50:18.837Z,7332.00
2023-04-22T08:51:18.841Z,7260.00
2023-04-22T08:52:18.836Z,7188.00
2023-04-22T08:53:18.826Z,7124.00
2023-04-22T08:54:18.846Z,7052.00
2023-04-22T08:55:18.817Z,6984.00
2023-04-22T08:56:18.804Z,6932.00
2023-04-22T08:57:18.916Z,6888.00
2023-04-22T08:58:18.839Z,6836.00
2023-04-22T08:59:18.833Z,6776.00
2023-04-22T09:00:18.833Z,6704.00
2023-04-22T09:01:18.852Z,6652.00
2023-04-22T09:02:18.892Z,6588.00
2023-04-22T09:03:18.889Z,6528.00
2023-04-22T09:04:19.053Z,6508.00
2023-04-22T09:05:18.871Z,6436.00
2023-04-22T09:06:18.851Z,6388.00
2023-04-22T09:07:18.854Z,6348.00
2023-04-22T09:08:18.919Z,6296.00
2023-04-22T09:09:18.871Z,6200.00
2023-04-22T09:10:18.871Z,6172.00
2023-04-22T09:11:18.874Z,6184.00
2023-04-22T09:12:18.870Z,6120.00
2023-04-22T09:13:18.888Z,6044.00
2023-04-22T09:14:18.896Z,6012.00
2023-04-22T09:15:18.896Z,5956.00
2023-04-22T09:16:18.894Z,5912.00
2023-04-22T09:17:18.955Z,5876.00
2023-04-22T09:18:18.896Z,5864.00
2023-04-22T09:19:18.911Z,5924.00
2023-04-22T09:20:18.905Z,6008.00
2023-04-22T09:21:18.896Z,6196.00
2023-04-22T09:22:18.920Z,6224.00
2023-04-22T09:23:18.903Z,6108.00
2023-04-22T09:24:18.911Z,6340.00
2023-04-22T09:25:18.926Z,6316.00
2023-04-22T09:26:18.909Z,5792.00
2023-04-22T09:27:18.927Z,5836.00
2023-04-22T09:28:18.957Z,5740.00
2023-04-22T09:29:18.979Z,5652.00
2023-04-22T09:30:19.021Z,5600.00
2023-04-22T09:31:18.952Z,5584.00
2023-04-22T09:32:18.952Z,5580.00
2023-04-22T09:33:18.959Z,5548.00
2023-04-22T09:34:18.955Z,5528.00
2023-04-22T09:35:18.957Z,5524.00
2023-04-22T09:36:18.946Z,5516.00
2023-04-22T09:37:18.951Z,5504.00
2023-04-22T09:38:18.962Z,5496.00
2023-04-22T09:39:18.960Z,5464.00
2023-04-22T09:40:19.013Z,5432.00
2023-04-22T09:41:19.047Z,5400.00
2023-04-22T09:42:18.966Z,5372.00
2023-04-22T09:43:18.988Z,5332.00
2023-04-22T09:44:18.965Z,5300.00
2023-04-22T09:45:18.980Z,5268.00
2023-04-22T09:46:19.096Z,5244.00
2023-04-22T09:47:18.974Z,5220.00
2023-04-22T09:48:18.988Z,5220.00
2023-04-22T09:49:18.988Z,5236.00
2023-04-22T09:50:18.984Z,5212.00
2023-04-22T09:51:18.988Z,5200.00
2023-04-22T09:52:19.018Z,5184.00
2023-04-22T09:53:19.002Z,5164.00
2023-04-22T09:54:19.009Z,5164.00
2023-04-22T09:55:19.022Z,5160.00
2023-04-22T09:56:19.018Z,5168.00
2023-04-22T09:57:19.001Z,5108.00
2023-04-22T09:58:19.031Z,5112.00
2023-04-22T09:59:19.041Z,5084.00
2023-04-22T10:00:19.047Z,5060.00
2023-04-22T10:01:19.113Z,5032.00
2023-04-22T10:02:19.083Z,5004.00
2023-04-22T10:03:19.231Z,4992.00
2023-04-22T10:04:19.041Z,4980.00
2023-04-22T10:05:19.063Z,4964.00
2023-04-22T10:06:19.028Z,4940.00
2023-04-22T10:07:19.037Z,4932.00
2023-04-22T10:08:19.038Z,4912.00
2023-04-22T10:09:19.040Z,4892.00
2023-04-22T10:10:19.046Z,4884.00
2023-04-22T10:11:19.052Z,4880.00
2023-04-22T10:12:26.075Z,4872.00
2023-04-22T10:13:19.042Z,4852.00
2023-04-22T10:14:19.045Z,4840.00
2023-04-22T10:15:19.057Z,4816.00
2023-04-22T10:16:19.102Z,4792.00
2023-04-22T10:17:19.195Z,4776.00
2023-04-22T10:18:19.108Z,4756.00
2023-04-22T10:19:19.071Z,4748.00
2023-04-22T10:20:19.075Z,4736.00
2023-04-22T10:21:19.108Z,4728.00
2023-04-22T10:22:19.092Z,4696.00
2023-04-22T10:23:19.082Z,4680.00
2023-04-22T10:24:19.098Z,4712.00
2023-04-22T10:25:19.111Z,4688.00
2023-04-22T10:26:19.145Z,4676.00
2023-04-22T10:27:19.242Z,4660.00
2023-04-22T10:28:19.097Z,4644.00
2023-04-22T10:29:19.137Z,4628.00
2023-04-22T10:30:19.106Z,4612.00
2023-04-22T10:31:19.137Z,4540.00
2023-04-22T10:32:19.145Z,4572.00
2023-04-22T10:33:19.131Z,4528.00
2023-04-22T10:34:19.110Z,4504.00
2023-04-22T10:35:19.101Z,4472.00
2023-04-22T10:36:19.092Z,4448.00
2023-04-22T10:37:19.099Z,4416.00
2023-04-22T10:38:19.122Z,4388.00
2023-04-22T10:39:19.121Z,4364.00
2023-04-22T10:40:19.145Z,4340.00
2023-04-22T10:41:19.162Z,4328.00
2023-04-22T10:42:19.130Z,4300.00
2023-04-22T10:43:19.116Z,4280.00
2023-04-22T10:44:19.116Z,4264.00
2023-04-22T10:45:19.157Z,4260.00
2023-04-22T10:46:19.153Z,4240.00
2023-04-22T10:47:19.165Z,4216.00
2023-04-22T10:48:19.147Z,4204.00
2023-04-22T10:49:19.126Z,4200.00
2023-04-22T10:50:19.135Z,4180.00
2023-04-22T10:51:19.140Z,4184.00
2023-04-22T10:52:19.196Z,4168.00
2023-04-22T10:53:19.140Z,4152.00
2023-04-22T10:54:19.157Z,4136.00
2023-04-22T10:55:19.168Z,4116.00
2023-04-22T10:56:19.173Z,4100.00
2023-04-22T10:57:19.172Z,4072.00
2023-04-22T10:58:19.166Z,4056.00
2023-04-22T10:59:19.162Z,4044.00
2023-04-22T11:00:19.165Z,4036.00
2023-04-22T11:01:19.210Z,4024.00
2023-04-22T11:02:19.194Z,4012.00
2023-04-22T11:03:19.322Z,4012.00
2023-04-22T11:04:19.235Z,4012.00
2023-04-22T11:05:19.183Z,4016.00
2023-04-22T11:06:19.201Z,4028.00
2023-04-22T11:07:19.171Z,4028.00
2023-04-22T11:08:19.204Z,4012.00
2023-04-22T11:09:19.204Z,4004.00
2023-04-22T11:10:19.171Z,4016.00
2023-04-22T11:11:19.271Z,4012.00
2023-04-22T11:12:19.180Z,4024.00
2023-04-22T11:13:19.222Z,4040.00
2023-04-22T11:14:19.201Z,4056.00
2023-04-22T11:15:19.192Z,4032.00
2023-04-22T11:16:20.465Z,4048.00
2023-04-22T11:17:19.201Z,4036.00
2023-04-22T11:18:19.227Z,4040.00
2023-04-22T11:19:19.200Z,4060.00
2023-04-22T11:20:19.199Z,4072.00
2023-04-22T11:21:19.205Z,4080.00
2023-04-22T11:22:19.219Z,4084.00
2023-04-22T11:23:19.209Z,4084.00
2023-04-22T11:24:19.216Z,4084.00
2023-04-22T11:25:19.237Z,4092.00
2023-04-22T11:26:19.206Z,4116.00
2023-04-22T11:27:19.258Z,4128.00
2023-04-22T11:28:21.034Z,4132.00
2023-04-22T11:29:19.210Z,4144.00
2023-04-22T11:30:19.210Z,4144.00
2023-04-22T11:31:19.240Z,4104.00
2023-04-22T11:32:19.221Z,4156.00
2023-04-22T11:33:19.260Z,4176.00
2023-04-22T11:34:19.229Z,4176.00
2023-04-22T11:35:19.229Z,4196.00
2023-04-22T11:36:19.236Z,4204.00
2023-04-22T11:37:19.471Z,4236.00
2023-04-22T11:38:19.245Z,4244.00
2023-04-22T11:39:19.268Z,4280.00
2023-04-22T11:40:29.161Z,4288.00
2023-04-22T11:41:19.269Z,4272.00
2023-04-22T11:42:19.243Z,4308.00
2023-04-22T11:43:19.248Z,4312.00
2023-04-22T11:44:19.249Z,4340.00
2023-04-22T11:45:19.258Z,4368.00
2023-04-22T11:46:20.485Z,4388.00
2023-04-22T11:47:19.263Z,4376.00
2023-04-22T11:48:19.278Z,4412.00
2023-04-22T11:49:19.333Z,4408.00
2023-04-22T11:50:19.281Z,4420.00
2023-04-22T11:51:19.329Z,4464.00
2023-04-22T11:52:19.663Z,4512.00
2023-04-22T11:53:19.301Z,4516.00
2023-04-22T11:54:19.276Z,4536.00
2023-04-22T11:55:19.296Z,4528.00
2023-04-22T11:56:19.280Z,4564.00
2023-04-22T11:57:19.287Z,4608.00
2023-04-22T11:58:19.382Z,4608.00
2023-04-22T11:59:19.308Z,4588.00
2023-04-22T12:00:19.290Z,4588.00
2023-04-22T12:01:19.282Z,4596.00
2023-04-22T12:02:19.515Z,4612.00
2023-04-22T12:03:19.549Z,4604.00
2023-04-22T12:04:19.313Z,4620.00
2023-04-22T12:05:19.412Z,4612.00
2023-04-22T12:06:19.306Z,4612.00
2023-04-22T12:07:19.315Z,4640.00
2023-04-22T12:08:19.293Z,4644.00
2023-04-22T12:09:19.321Z,4652.00
2023-04-22T12:10:19.301Z,4676.00
2023-04-22T12:11:19.309Z,4672.00
2023-04-22T12:12:19.323Z,4668.00
2023-04-22T12:13:19.305Z,4668.00
2023-04-22T12:14:19.309Z,4684.00
2023-04-22T12:15:19.324Z,4696.00
2023-04-22T12:16:19.756Z,4684.00
2023-04-22T12:17:19.384Z,4716.00
2023-04-22T12:18:19.326Z,4736.00
2023-04-22T12:19:19.338Z,4776.00
2023-04-22T12:20:19.367Z,4792.00
2023-04-22T12:21:19.360Z,4804.00
2023-04-22T12:22:19.328Z,4824.00
2023-04-22T12:23:19.452Z,4820.00
2023-04-22T12:24:20.018Z,4812.00